createdAt,value
2019-03-22T00:00:46.871Z,95.30
2019-03-22T00:03:24.375Z,95.50
2019-03-22T00:06:13.554Z,95.40
2019-03-22T00:08:43.751Z,95.60
2019-03-22T00:11:14.083Z,95.60
2019-03-22T00:13:44.406Z,95.60
2019-03-22T00:16:14.932Z,95.90
2019-03-22T00:18:45.252Z,96.00
2019-03-22T00:21:15.493Z,96.00
2019-03-22T00:23:45.595Z,96.00
2019-03-22T00:26:15.733Z,96.10
2019-03-22T00:28:45.948Z,96.00
2019-03-22T00:31:16.141Z,95.90
2019-03-22T00:33:46.383Z,95.90
2019-03-22T00:36:16.688Z,96.00
2019-03-22T00:38:46.983Z,96.00
2019-03-22T00:41:17.135Z,95.70
2019-03-22T00:43:49.332Z,95.80
2019-03-22T00:46:19.576Z,95.90
2019-03-22T00:48:49.901Z,95.90
2019-03-22T00:51:20.185Z,96.00
2019-03-22T00:53:50.316Z,95.80
2019-03-22T00:56:20.415Z,96.00
2019-03-22T00:58:50.555Z,96.30
2019-03-22T01:01:20.670Z,96.30
2019-03-22T01:03:50.810Z,96.30
2019-03-22T01:06:20.887Z,96.40
2019-03-22T01:08:51.076Z,96.60
2019-03-22T01:11:22.271Z,96.90
2019-03-22T01:13:52.535Z,96.90
2019-03-22T01:16:22.832Z,96.90
2019-03-22T01:18:52.955Z,97.00
2019-03-22T01:21:41.828Z,97.40
2019-03-22T01:24:11.983Z,97.00
2019-03-22T01:27:00.831Z,97.30
2019-03-22T01:29:30.931Z,96.80
2019-03-22T01:32:01.242Z,96.90
2019-03-22T01:34:31.323Z,97.00
2019-03-22T01:37:01.487Z,97.20
2019-03-22T01:39:31.602Z,97.10
2019-03-22T01:42:02.735Z,96.90
2019-03-22T01:44:32.844Z,97.20
2019-03-22T01:47:03.037Z,97.20
2019-03-22T01:49:33.302Z,97.20
2019-03-22T01:52:03.405Z,97.30
2019-03-22T01:54:33.592Z,97.40
2019-03-22T01:57:03.875Z,97.70
2019-03-22T01:59:34.166Z,97.50
2019-03-22T02:02:04.451Z,97.70
2019-03-22T02:04:34.600Z,97.40
2019-03-22T02:07:04.777Z,97.30
2019-03-22T02:09:53.644Z,97.60
2019-03-22T02:12:23.806Z,97.60
2019-03-22T02:14:54.021Z,97.30
2019-03-22T02:17:24.283Z,96.90
2019-03-22T02:19:54.415Z,97.10
2019-03-22T02:22:24.875Z,97.50
2019-03-22T02:24:55.108Z,97.40
2019-03-22T02:27:25.375Z,97.40
2019-03-22T02:29:55.747Z,97.60
2019-03-22T02:32:25.959Z,97.50
2019-03-22T02:34:56.220Z,97.70
2019-03-22T02:37:26.349Z,97.80
2019-03-22T02:39:56.577Z,97.70
2019-03-22T02:42:26.698Z,97.80
2019-03-22T02:44:56.804Z,97.70
2019-03-22T02:47:26.967Z,98.10
2019-03-22T02:49:57.259Z,98.00
2019-03-22T02:52:27.392Z,98.10
2019-03-22T02:54:57.513Z,98.30
2019-03-22T02:57:27.611Z,98.30
2019-03-22T02:59:57.768Z,98.30
2019-03-22T03:02:28.038Z,98.30
2019-03-22T03:04:58.189Z,98.50
2019-03-22T03:07:28.268Z,98.50
2019-03-22T03:09:58.556Z,98.50
2019-03-22T03:12:28.831Z,98.70
2019-03-22T03:14:58.957Z,98.70
2019-03-22T03:17:29.128Z,98.60
2019-03-22T03:19:59.405Z,98.70
2019-03-22T03:22:29.558Z,98.90
2019-03-22T03:24:59.831Z,98.90
2019-03-22T03:27:29.999Z,98.90
2019-03-22T03:30:00.689Z,99.00
2019-03-22T03:32:30.989Z,99.00
2019-03-22T03:35:01.272Z,99.10
2019-03-22T03:37:31.488Z,99.10
2019-03-22T03:40:01.573Z,99.10
2019-03-22T03:42:31.952Z,99.30
2019-03-22T03:45:02.249Z,99.40
2019-03-22T03:47:32.339Z,99.40
2019-03-22T03:50:02.488Z,99.50
2019-03-22T03:52:32.586Z,99.50
2019-03-22T03:55:04.108Z,99.50
2019-03-22T03:57:34.250Z,99.50
2019-03-22T04:00:05.390Z,99.70
2019-03-22T04:02:35.544Z,99.60
2019-03-22T04:05:06.538Z,99.70
2019-03-22T04:07:36.786Z,99.60
2019-03-22T04:10:07.348Z,99.30
2019-03-22T04:12:37.542Z,99.30
2019-03-22T04:15:07.830Z,99.00
2019-03-22T04:17:38.151Z,98.70
2019-03-22T04:20:08.343Z,98.70
2019-03-22T04:22:38.437Z,98.70
2019-03-22T04:25:09.082Z,98.70
2019-03-22T04:27:39.285Z,99.00
2019-03-22T04:30:09.560Z,98.90
2019-03-22T04:32:39.751Z,99.00
2019-03-22T04:35:10.043Z,99.10
2019-03-22T04:37:40.236Z,99.30
2019-03-22T04:40:24.349Z,99.20
2019-03-22T04:42:54.578Z,99.20
2019-03-22T04:45:25.750Z,99.30
2019-03-22T04:48:02.543Z,99.50
2019-03-22T04:50:35.310Z,99.40
2019-03-22T04:53:06.520Z,99.50
2019-03-22T04:55:38.399Z,99.40
2019-03-22T04:58:09.687Z,99.40
2019-03-22T05:00:40.575Z,99.10
2019-03-22T05:03:12.456Z,99.30
2019-03-22T05:05:43.411Z,99.00
2019-03-22T05:08:14.737Z,99.30
2019-03-22T05:10:45.905Z,99.20
2019-03-22T05:13:19.368Z,99.00
2019-03-22T05:15:50.387Z,99.10
2019-03-22T05:18:21.297Z,99.10
2019-03-22T05:20:52.811Z,99.30
2019-03-22T05:23:25.183Z,99.20
2019-03-22T05:25:58.580Z,99.10
2019-03-22T05:28:31.385Z,99.20
2019-03-22T05:31:37.843Z,99.30
2019-03-22T05:34:08.012Z,99.40
2019-03-22T05:36:38.102Z,99.20
2019-03-22T05:39:10.063Z,99.30
2019-03-22T05:41:40.303Z,99.30
2019-03-22T05:44:11.921Z,99.40
2019-03-22T05:46:42.160Z,99.20
2019-03-22T05:49:12.318Z,99.10
2019-03-22T05:51:42.540Z,99.20
2019-03-22T05:54:12.771Z,99.50
2019-03-22T05:56:44.375Z,99.60
2019-03-22T05:59:14.628Z,99.60
2019-03-22T06:01:45.468Z,99.50
2019-03-22T06:04:15.780Z,99.50
2019-03-22T06:06:46.030Z,99.30
2019-03-22T06:09:19.075Z,99.30
2019-03-22T06:11:49.286Z,99.10
2019-03-22T06:14:19.546Z,99.50
2019-03-22T06:16:49.927Z,99.40
2019-03-22T06:19:20.179Z,99.30
2019-03-22T06:21:50.376Z,99.50
2019-03-22T06:24:24.294Z,99.20
2019-03-22T06:26:56.055Z,99.20
2019-03-22T06:29:26.295Z,98.70
2019-03-22T06:31:56.579Z,98.40
2019-03-22T06:34:26.858Z,98.10
2019-03-22T06:36:57.115Z,98.10
2019-03-22T06:39:27.341Z,97.90
2019-03-22T06:42:04.419Z,97.40
2019-03-22T06:44:43.591Z,97.20
2019-03-22T06:47:14.252Z,97.00
2019-03-22T06:49:45.724Z,96.80
2019-03-22T06:52:17.729Z,96.70
2019-03-22T06:54:50.396Z,96.60
2019-03-22T06:57:20.672Z,96.60
2019-03-22T06:59:52.818Z,96.50
2019-03-22T07:02:23.050Z,96.30
2019-03-22T07:04:55.142Z,96.10
2019-03-22T07:07:26.619Z,95.50
2019-03-22T07:09:57.826Z,95.60
2019-03-22T07:12:28.076Z,95.50
2019-03-22T07:14:59.289Z,95.00
2019-03-22T07:17:30.450Z,95.30
2019-03-22T07:20:07.970Z,95.00
2019-03-22T07:22:39.395Z,95.00
2019-03-22T07:25:09.821Z,94.80
2019-03-22T07:27:41.179Z,94.70
2019-03-22T07:30:18.701Z,94.30
2019-03-22T07:32:44.659Z,93.90
2019-03-22T07:35:15.359Z,93.60
2019-03-22T07:37:45.732Z,93.20
2019-03-22T07:40:17.987Z,93.20
2019-03-22T07:42:48.191Z,93.40
2019-03-22T07:45:18.416Z,93.40
2019-03-22T07:47:48.669Z,93.20
2019-03-22T07:50:20.016Z,92.60
2019-03-22T07:52:51.271Z,92.70
2019-03-22T07:55:22.472Z,92.30
2019-03-22T07:57:52.768Z,92.40
2019-03-22T08:00:30.694Z,92.20
2019-03-22T08:02:57.488Z,92.20
2019-03-22T08:05:28.668Z,92.00
2019-03-22T08:08:02.661Z,92.20
2019-03-22T08:10:32.883Z,92.00
2019-03-22T08:13:03.171Z,91.80
2019-03-22T08:15:35.855Z,91.30
2019-03-22T08:18:08.520Z,91.30
2019-03-22T08:20:39.084Z,91.50
2019-03-22T08:23:28.463Z,91.20
2019-03-22T08:25:58.598Z,91.30
2019-03-22T08:28:30.700Z,90.90
2019-03-22T08:31:02.092Z,90.70
2019-03-22T08:33:33.880Z,90.60
2019-03-22T08:36:07.154Z,90.10
2019-03-22T08:38:37.836Z,88.50
2019-03-22T08:41:08.217Z,88.60
2019-03-22T08:43:39.824Z,89.00
2019-03-22T08:46:10.073Z,87.50
2019-03-22T08:48:40.417Z,87.30
2019-03-22T08:51:10.751Z,87.00
2019-03-22T08:53:54.205Z,85.90
2019-03-22T08:56:12.763Z,85.10
2019-03-22T08:58:42.916Z,85.10
2019-03-22T09:01:12.992Z,85.10
2019-03-22T09:03:43.246Z,83.80
2019-03-22T09:06:13.612Z,83.50
2019-03-22T09:08:43.932Z,81.40
2019-03-22T09:11:18.064Z,80.20
2019-03-22T09:13:47.475Z,80.70
2019-03-22T09:16:17.731Z,80.70
2019-03-22T09:18:47.861Z,81.40
2019-03-22T09:21:17.982Z,80.70
2019-03-22T09:23:48.102Z,80.40
2019-03-22T09:26:19.981Z,80.00
2019-03-22T09:28:51.191Z,78.00
2019-03-22T09:31:23.788Z,77.00
2019-03-22T09:33:55.135Z,77.20
2019-03-22T09:36:25.390Z,75.90
2019-03-22T09:38:55.679Z,76.00
2019-03-22T09:41:25.836Z,73.80
2019-03-22T09:43:56.542Z,73.70
2019-03-22T09:46:29.530Z,72.80
2019-03-22T09:49:02.683Z,73.00
2019-03-22T09:51:32.859Z,71.70
2019-03-22T09:54:02.983Z,69.80
2019-03-22T09:56:46.290Z,69.20
2019-03-22T09:59:08.069Z,67.40
2019-03-22T10:01:39.412Z,66.60
2019-03-22T10:04:09.708Z,67.50
2019-03-22T10:06:59.559Z,67.00
2019-03-22T10:09:48.403Z,66.90
2019-03-22T10:12:18.601Z,67.10
2019-03-22T10:14:50.552Z,66.80
2019-03-22T10:17:26.152Z,66.60
2019-03-22T10:19:57.750Z,65.40
2019-03-22T10:22:28.185Z,65.10
2019-03-22T10:25:00.061Z,64.80
2019-03-22T10:27:31.855Z,65.10
2019-03-22T10:30:03.249Z,64.60
2019-03-22T10:32:33.591Z,65.60
2019-03-22T10:35:03.969Z,65.60
2019-03-22T10:37:34.047Z,64.80
2019-03-22T10:40:05.055Z,64.30
2019-03-22T10:42:37.053Z,63.90
2019-03-22T10:45:07.624Z,63.90
2019-03-22T10:47:37.935Z,62.10
2019-03-22T10:50:09.434Z,61.20
2019-03-22T10:52:40.586Z,61.40
2019-03-22T10:55:28.946Z,60.30
2019-03-22T10:57:46.834Z,60.00
2019-03-22T11:00:18.972Z,60.20
2019-03-22T11:02:50.166Z,60.00
2019-03-22T11:05:20.477Z,59.60
2019-03-22T11:07:52.130Z,59.30
2019-03-22T11:10:22.344Z,59.40
2019-03-22T11:12:52.563Z,58.60
2019-03-22T11:15:24.000Z,58.50
2019-03-22T11:17:54.467Z,58.70
2019-03-22T11:20:25.936Z,58.90
2019-03-22T11:22:56.047Z,59.00
2019-03-22T11:25:26.307Z,58.90
2019-03-22T11:27:56.545Z,59.10
2019-03-22T11:30:26.912Z,58.60
2019-03-22T11:32:57.104Z,58.40
2019-03-22T11:35:27.387Z,58.00
2019-03-22T11:37:57.542Z,59.40
2019-03-22T11:40:27.926Z,58.80
2019-03-22T11:43:08.011Z,58.90
2019-03-22T11:45:29.911Z,58.90
2019-03-22T11:48:00.618Z,58.60
2019-03-22T11:50:30.947Z,58.70
2019-03-22T11:53:03.273Z,58.40
2019-03-22T11:55:35.860Z,57.50
2019-03-22T11:58:08.092Z,57.00
2019-03-22T12:00:38.341Z,56.40
2019-03-22T12:03:08.788Z,56.40
2019-03-22T12:05:40.612Z,56.20
2019-03-22T12:08:12.208Z,55.70
2019-03-22T12:10:42.475Z,55.70
2019-03-22T12:13:12.621Z,55.70
2019-03-22T12:15:43.844Z,55.20
2019-03-22T12:18:16.475Z,54.80
2019-03-22T12:20:46.811Z,54.30
2019-03-22T12:23:16.942Z,53.80
2019-03-22T12:25:47.084Z,54.00
2019-03-22T12:28:19.035Z,53.40
2019-03-22T12:30:52.133Z,52.90
2019-03-22T12:33:22.389Z,52.90
2019-03-22T12:35:54.175Z,52.60
2019-03-22T12:38:25.495Z,51.40
2019-03-22T12:40:57.246Z,51.90
2019-03-22T12:43:30.191Z,51.70
2019-03-22T12:46:02.052Z,50.40
2019-03-22T12:48:33.443Z,50.30
2019-03-22T12:51:05.664Z,49.50
2019-03-22T12:53:35.963Z,48.70
2019-03-22T12:56:06.621Z,48.30
2019-03-22T12:58:37.760Z,48.80
2019-03-22T13:01:10.781Z,48.20
2019-03-22T13:03:40.975Z,48.10
2019-03-22T13:06:13.037Z,47.00
2019-03-22T13:08:45.345Z,45.30
2019-03-22T13:11:15.687Z,45.70
2019-03-22T13:13:45.760Z,44.90
2019-03-22T13:16:17.919Z,44.60
2019-03-22T13:18:50.556Z,44.40
2019-03-22T13:21:20.866Z,43.60
2019-03-22T13:23:51.127Z,42.70
2019-03-22T13:26:21.379Z,42.40
2019-03-22T13:28:51.625Z,42.10
2019-03-22T13:31:21.952Z,41.50
2019-03-22T13:33:52.180Z,41.20
2019-03-22T13:36:24.095Z,41.80
2019-03-22T13:38:56.590Z,41.50
2019-03-22T13:41:28.639Z,40.70
2019-03-22T13:44:00.664Z,40.50
2019-03-22T13:46:39.895Z,40.20
2019-03-22T13:49:02.799Z,41.00
2019-03-22T13:51:33.187Z,40.70
2019-03-22T13:54:04.835Z,41.00
2019-03-22T13:56:36.011Z,40.00
2019-03-22T13:59:06.175Z,40.40
2019-03-22T14:01:36.277Z,40.10
2019-03-22T14:04:06.488Z,38.90
2019-03-22T14:06:38.563Z,39.40
2019-03-22T14:09:11.947Z,39.50
2019-03-22T14:11:43.892Z,39.80
2019-03-22T14:14:14.083Z,39.30
2019-03-22T14:16:44.427Z,38.30
2019-03-22T14:19:33.263Z,38.10
2019-03-22T14:22:03.484Z,38.10
2019-03-22T14:24:37.495Z,38.40
2019-03-22T14:27:26.340Z,38.40
2019-03-22T14:29:56.795Z,38.60
2019-03-22T14:32:29.037Z,38.30
2019-03-22T14:35:01.067Z,38.30
2019-03-22T14:37:31.291Z,38.10
2019-03-22T14:40:01.497Z,38.20
2019-03-22T14:42:32.928Z,37.80
2019-03-22T14:45:04.860Z,37.70
2019-03-22T14:47:35.074Z,37.80
2019-03-22T14:50:05.384Z,37.10
2019-03-22T14:52:37.190Z,37.20
2019-03-22T14:55:09.071Z,36.50
2019-03-22T14:57:48.318Z,37.20
2019-03-22T15:00:12.584Z,37.80
2019-03-22T15:02:43.932Z,37.50
2019-03-22T15:05:14.265Z,37.30
2019-03-22T15:07:44.379Z,37.50
2019-03-22T15:10:15.295Z,37.90
2019-03-22T15:12:45.900Z,37.80
2019-03-22T15:15:32.571Z,37.90
2019-03-22T15:18:10.843Z,37.00
2019-03-22T15:21:12.352Z,37.50
2019-03-22T15:24:03.597Z,36.60
2019-03-22T15:26:49.094Z,36.50
2019-03-22T15:29:33.425Z,35.90
2019-03-22T15:32:21.173Z,35.60
2019-03-22T15:35:09.168Z,35.20
2019-03-22T15:38:12.295Z,34.80
2019-03-22T15:40:45.367Z,35.40
2019-03-22T15:43:15.610Z,36.00
2019-03-22T15:45:46.138Z,37.50
2019-03-22T15:48:17.612Z,39.10
2019-03-22T15:50:47.768Z,40.70
2019-03-22T15:53:20.077Z,41.90
2019-03-22T15:55:51.520Z,43.80
2019-03-22T15:58:22.103Z,44.80
2019-03-22T16:00:53.472Z,46.20
2019-03-22T16:03:25.975Z,47.40
2019-03-22T16:05:56.413Z,48.30
2019-03-22T16:08:28.145Z,49.20
2019-03-22T16:10:59.305Z,49.90
2019-03-22T16:13:29.392Z,50.40
2019-03-22T16:15:59.643Z,51.10
2019-03-22T16:18:31.688Z,51.80
2019-03-22T16:21:02.789Z,52.70
2019-03-22T16:23:37.908Z,53.00
2019-03-22T16:26:10.146Z,53.80
2019-03-22T16:28:40.272Z,55.10
2019-03-22T16:31:10.602Z,55.20
2019-03-22T16:33:40.966Z,55.90
2019-03-22T16:36:12.639Z,56.20
2019-03-22T16:38:42.971Z,56.80
2019-03-22T16:41:13.222Z,57.40
2019-03-22T16:43:43.375Z,57.40
2019-03-22T16:46:15.339Z,58.10
2019-03-22T16:48:45.640Z,58.50
2019-03-22T16:51:15.878Z,58.30
2019-03-22T16:53:46.035Z,58.90
2019-03-22T16:56:16.312Z,63.90
2019-03-22T16:58:46.396Z,78.00
2019-03-22T17:01:16.544Z,70.20
2019-03-22T17:03:46.719Z,67.80
2019-03-22T17:06:16.987Z,67.50
2019-03-22T17:08:47.196Z,74.00
2019-03-22T17:11:17.306Z,67.40
2019-03-22T17:13:47.415Z,69.00
2019-03-22T17:16:17.612Z,69.30
2019-03-22T17:18:49.702Z,66.50
2019-03-22T17:21:19.891Z,67.30
2019-03-22T17:23:50.191Z,66.90
2019-03-22T17:26:21.999Z,66.80
2019-03-22T17:28:54.540Z,67.00
2019-03-22T17:31:27.781Z,68.00
2019-03-22T17:33:58.063Z,69.00
2019-03-22T17:36:31.401Z,70.40
2019-03-22T17:39:03.960Z,71.10
2019-03-22T17:41:34.107Z,71.40
2019-03-22T17:44:04.270Z,72.00
2019-03-22T17:46:34.640Z,72.60
2019-03-22T17:49:05.255Z,73.40
2019-03-22T17:51:35.427Z,74.60
2019-03-22T17:54:05.516Z,74.20
2019-03-22T17:56:35.615Z,76.10
2019-03-22T17:59:05.963Z,75.80
2019-03-22T18:01:36.072Z,76.80
2019-03-22T18:04:06.195Z,76.00
2019-03-22T18:06:36.604Z,76.30
2019-03-22T18:09:08.919Z,76.10
2019-03-22T18:11:39.280Z,77.30
2019-03-22T18:14:09.577Z,77.10
2019-03-22T18:16:39.664Z,78.60
2019-03-22T18:19:09.792Z,78.70
2019-03-22T18:21:39.904Z,78.80
2019-03-22T18:24:10.042Z,79.70
2019-03-22T18:26:40.127Z,81.20
2019-03-22T18:29:10.251Z,80.60
2019-03-22T18:31:40.598Z,81.80
2019-03-22T18:34:10.710Z,81.90
2019-03-22T18:36:40.834Z,83.40
2019-03-22T18:39:10.972Z,83.00
2019-03-22T18:41:41.132Z,83.50
2019-03-22T18:44:11.290Z,85.50
2019-03-22T18:46:41.447Z,85.70
2019-03-22T18:49:11.733Z,85.60
2019-03-22T18:51:41.849Z,86.70
2019-03-22T18:54:12.024Z,87.00
2019-03-22T18:56:43.768Z,86.60
2019-03-22T18:59:13.846Z,88.40
2019-03-22T19:01:44.033Z,88.30
2019-03-22T19:04:14.378Z,88.50
2019-03-22T19:06:44.612Z,88.80
2019-03-22T19:09:14.751Z,88.80
2019-03-22T19:11:44.847Z,88.40
2019-03-22T19:14:15.005Z,87.70
2019-03-22T19:16:45.561Z,87.70
2019-03-22T19:19:15.883Z,87.40
2019-03-22T19:21:46.152Z,88.10
2019-03-22T19:24:16.296Z,88.00
2019-03-22T19:26:46.496Z,88.00
2019-03-22T19:29:16.751Z,87.50
2019-03-22T19:31:47.003Z,87.30
2019-03-22T19:34:17.273Z,87.10
2019-03-22T19:36:47.412Z,86.70
2019-03-22T19:39:17.509Z,86.70
2019-03-22T19:41:47.651Z,86.30
2019-03-22T19:44:17.809Z,86.40
2019-03-22T19:46:48.072Z,86.40
2019-03-22T19:49:18.208Z,86.00
2019-03-22T19:51:48.436Z,86.10
2019-03-22T19:54:18.554Z,86.00
2019-03-22T19:56:48.679Z,85.80
2019-03-22T19:59:18.771Z,86.10
2019-03-22T20:01:48.886Z,86.10
2019-03-22T20:04:19.036Z,86.40
2019-03-22T20:06:49.152Z,85.90
2019-03-22T20:09:19.232Z,86.70
2019-03-22T20:11:49.560Z,87.00
2019-03-22T20:14:19.868Z,86.60
2019-03-22T20:16:49.892Z,86.50
2019-03-22T20:19:20.168Z,86.60
2019-03-22T20:21:50.680Z,86.30
2019-03-22T20:24:20.878Z,87.10
2019-03-22T20:26:51.123Z,86.90
2019-03-22T20:29:21.259Z,86.80
2019-03-22T20:31:51.443Z,87.50
2019-03-22T20:34:21.679Z,87.20
2019-03-22T20:36:51.791Z,87.30
2019-03-22T20:39:21.908Z,88.00
2019-03-22T20:41:52.169Z,87.90
2019-03-22T20:44:33.390Z,88.20
2019-03-22T20:46:54.760Z,88.20
2019-03-22T20:49:24.948Z,88.00
2019-03-22T20:51:55.069Z,87.90
2019-03-22T20:54:27.242Z,88.40
2019-03-22T20:56:57.367Z,88.60
2019-03-22T20:59:29.383Z,88.90
2019-03-22T21:02:01.495Z,89.40
2019-03-22T21:04:31.693Z,89.40
2019-03-22T21:07:03.143Z,89.90
2019-03-22T21:09:33.352Z,90.20
2019-03-22T21:12:04.027Z,90.10
2019-03-22T21:14:36.406Z,90.30
2019-03-22T21:17:06.634Z,90.50
2019-03-22T21:19:36.829Z,90.40
2019-03-22T21:22:06.972Z,90.80
2019-03-22T21:24:37.157Z,91.00
2019-03-22T21:27:15.023Z,91.10
2019-03-22T21:29:43.966Z,91.40
2019-03-22T21:32:10.972Z,91.70
